sensor_id;sensor_type;location;lat;lon;timestamp;pressure;altitude;pressure_sealevel;temperature;humidity
43707;BME280;61348;53.392;-6.248;2022-07-29T00:01:58;101131.19;;;16.35;73.96
43707;BME280;61348;53.392;-6.248;2022-07-29T00:04:25;101123.97;;;16.34;74.00
43707;BME280;61348;53.392;-6.248;2022-07-29T00:06:56;101124.78;;;16.35;74.39
43707;BME280;61348;53.392;-6.248;2022-07-29T01:02:27;101125.84;;;16.76;75.29
43707;BME280;61348;53.392;-6.248;2022-07-29T01:04:56;101115.09;;;16.81;75.26
43707;BME280;61348;53.392;-6.248;2022-07-29T01:07:27;101116.72;;;16.82;75.78
43707;BME280;61348;53.392;-6.248;2022-07-29T01:09:57;101107.16;;;16.83;75.89
43707;BME280;61348;53.392;-6.248;2022-07-29T01:12:27;101111.19;;;16.86;75.70
43707;BME280;61348;53.392;-6.248;2022-07-29T01:15:01;101105.22;;;16.87;76.07
43707;BME280;61348;53.392;-6.248;2022-07-29T01:34:47;101113.75;;;16.98;76.07
43707;BME280;61348;53.392;-6.248;2022-07-29T01:37:22;101115.69;;;16.94;76.09
43707;BME280;61348;53.392;-6.248;2022-07-29T01:39:52;101110.88;;;16.94;76.00
43707;BME280;61348;53.392;-6.248;2022-07-29T01:42:32;101112.44;;;16.92;76.65
43707;BME280;61348;53.392;-6.248;2022-07-29T01:45:27;101110.84;;;16.91;76.76
43707;BME280;61348;53.392;-6.248;2022-07-29T01:48:22;101111.66;;;16.91;76.49
43707;BME280;61348;53.392;-6.248;2022-07-29T01:51:24;101114.06;;;16.93;76.51
43707;BME280;61348;53.392;-6.248;2022-07-29T01:54:32;101110.00;;;16.87;77.09
43707;BME280;61348;53.392;-6.248;2022-07-29T01:57:26;101108.41;;;16.86;77.01
43707;BME280;61348;53.392;-6.248;2022-07-29T02:00:16;101113.59;;;16.87;76.64
43707;BME280;61348;53.392;-6.248;2022-07-29T02:02:46;101110.81;;;16.87;77.13
43707;BME280;61348;53.392;-6.248;2022-07-29T02:05:20;101117.22;;;16.88;77.03
43707;BME280;61348;53.392;-6.248;2022-07-29T02:07:50;101110.00;;;16.87;77.01
43707;BME280;61348;53.392;-6.248;2022-07-29T02:10:22;101119.13;;;16.84;77.50
43707;BME280;61348;53.392;-6.248;2022-07-29T02:12:54;101123.56;;;16.85;77.14
43707;BME280;61348;53.392;-6.248;2022-07-29T02:15:27;101119.13;;;16.84;77.50
43707;BME280;61348;53.392;-6.248;2022-07-29T02:18:01;101116.81;;;16.89;77.44
43707;BME280;61348;53.392;-6.248;2022-07-29T02:20:29;101118.06;;;16.92;77.42
43707;BME280;61348;53.392;-6.248;2022-07-29T02:23:00;101112.44;;;16.92;77.51
43707;BME280;61348;53.392;-6.248;2022-07-29T02:25:29;101116.81;;;16.89;77.17
43707;BME280;61348;53.392;-6.248;2022-07-29T02:28:05;101109.22;;;16.90;77.41
43707;BME280;61348;53.392;-6.248;2022-07-29T02:30:35;101109.28;;;16.93;77.05
43707;BME280;61348;53.392;-6.248;2022-07-29T02:33:03;101109.28;;;16.93;77.27
43707;BME280;61348;53.392;-6.248;2022-07-29T02:35:32;101106.88;;;16.92;76.91
43707;BME280;61348;53.392;-6.248;2022-07-29T02:38:01;101114.06;;;16.93;76.55
43707;BME280;61348;53.392;-6.248;2022-07-29T02:40:50;101115.25;;;16.92;76.87
43707;BME280;61348;53.392;-6.248;2022-07-29T02:43:20;101112.50;;;16.95;76.43
43707;BME280;61348;53.392;-6.248;2022-07-29T02:45:51;101112.56;;;16.99;75.49
43707;BME280;61348;53.392;-6.248;2022-07-29T02:48:25;101111.81;;;17.02;75.25
43707;BME280;61348;53.392;-6.248;2022-07-29T02:51:04;101101.38;;;16.99;74.70
43707;BME280;61348;53.392;-6.248;2022-07-29T02:53:33;101099.75;;;16.98;74.85
43707;BME280;61348;53.392;-6.248;2022-07-29T02:56:14;101098.03;;;16.90;74.35
43707;BME280;61348;53.392;-6.248;2022-07-29T02:58:49;101109.22;;;16.86;74.49
43707;BME280;61348;53.392;-6.248;2022-07-29T03:01:24;101103.66;;;16.90;74.58
43707;BME280;61348;53.392;-6.248;2022-07-29T03:03:53;101100.44;;;16.88;74.29
43707;BME280;61348;53.392;-6.248;2022-07-29T03:06:23;101095.59;;;16.85;74.56
43707;BME280;61348;53.392;-6.248;2022-07-29T03:09:04;101100.34;;;16.81;74.64
43707;BME280;61348;53.392;-6.248;2022-07-29T04:10:19;101137.94;;;16.57;72.66
43707;BME280;61348;53.392;-6.248;2022-07-29T04:13:05;101147.88;;;16.55;73.24
43707;BME280;61348;53.392;-6.248;2022-07-29T04:15:32;101134.63;;;16.52;73.62
43707;BME280;61348;53.392;-6.248;2022-07-29T04:18:00;101143.00;;;16.52;73.88
43707;BME280;61348;53.392;-6.248;2022-07-29T04:20:30;101134.19;;;16.50;74.22
43707;BME280;61348;53.392;-6.248;2022-07-29T04:22:58;101139.75;;;16.50;74.40
43707;BME280;61348;53.392;-6.248;2022-07-29T04:25:25;101139.75;;;16.50;74.63
43707;BME280;61348;53.392;-6.248;2022-07-29T04:27:53;101135.69;;;16.43;75.06
43707;BME280;61348;53.392;-6.248;2022-07-29T04:30:52;101138.75;;;16.35;75.72
43707;BME280;61348;53.392;-6.248;2022-07-29T04:33:40;101137.13;;;16.34;75.58
43707;BME280;61348;53.392;-6.248;2022-07-29T04:36:28;101133.22;;;16.38;75.75
43707;BME280;61348;53.392;-6.248;2022-07-29T04:39:16;101144.41;;;16.38;75.62
43707;BME280;61348;53.392;-6.248;2022-07-29T04:42:09;101145.69;;;16.44;75.69
43707;BME280;61348;53.392;-6.248;2022-07-29T04:44:57;101142.53;;;16.46;76.02
43707;BME280;61348;53.392;-6.248;2022-07-29T04:47:47;101144.13;;;16.47;75.76
43707;BME280;61348;53.392;-6.248;2022-07-29T04:50:40;101137.75;;;16.47;76.08
43707;BME280;61348;53.392;-6.248;2022-07-29T04:53:28;101134.94;;;16.47;76.33
43707;BME280;61348;53.392;-6.248;2022-07-29T04:56:16;101134.50;;;16.44;76.49
43707;BME280;61348;53.392;-6.248;2022-07-29T04:58:43;101131.28;;;16.42;76.35
43707;BME280;61348;53.392;-6.248;2022-07-29T05:01:11;101132.44;;;16.41;76.86
43707;BME280;61348;53.392;-6.248;2022-07-29T05:03:39;101133.22;;;16.38;76.98
43707;BME280;61348;53.392;-6.248;2022-07-29T05:06:06;101134.81;;;16.39;76.91
43707;BME280;61348;53.392;-6.248;2022-07-29T05:08:36;101130.47;;;16.42;77.13
43707;BME280;61348;53.392;-6.248;2022-07-29T05:11:07;101134.50;;;16.44;76.76
43707;BME280;61348;53.392;-6.248;2022-07-29T05:13:46;101124.53;;;16.43;77.07
43707;BME280;61348;53.392;-6.248;2022-07-29T05:16:13;101120.91;;;16.43;77.33
43707;BME280;61348;53.392;-6.248;2022-07-29T05:18:41;101120.84;;;16.39;77.64
43707;BME280;61348;53.392;-6.248;2022-07-29T05:21:11;101126.84;;;16.41;77.58
43707;BME280;61348;53.392;-6.248;2022-07-29T05:23:41;101130.47;;;16.42;77.53
43707;BME280;61348;53.392;-6.248;2022-07-29T05:26:08;101133.25;;;16.42;77.32
43707;BME280;61348;53.392;-6.248;2022-07-29T05:28:36;101127.75;;;16.45;77.21
43707;BME280;61348;53.392;-6.248;2022-07-29T05:31:06;101136.53;;;16.48;77.07
43707;BME280;61348;53.392;-6.248;2022-07-29T05:33:34;101134.19;;;16.50;77.27
43707;BME280;61348;53.392;-6.248;2022-07-29T05:36:04;101135.81;;;16.51;77.47
43707;BME280;61348;53.392;-6.248;2022-07-29T05:38:35;101139.06;;;16.53;77.07
43707;BME280;61348;53.392;-6.248;2022-07-29T05:41:04;101137.44;;;16.52;77.41
43707;BME280;61348;53.392;-6.248;2022-07-29T05:43:32;101131.91;;;16.55;77.64
43707;BME280;61348;53.392;-6.248;2022-07-29T05:46:00;101135.94;;;16.58;77.49
43707;BME280;61348;53.392;-6.248;2022-07-29T05:48:32;101133.59;;;16.60;77.42
43707;BME280;61348;53.392;-6.248;2022-07-29T05:51:01;101134.00;;;16.62;77.20
43707;BME280;61348;53.392;-6.248;2022-07-29T05:53:28;101133.63;;;16.63;76.65
43707;BME280;61348;53.392;-6.248;2022-07-29T05:56:03;101141.19;;;16.63;77.04
43707;BME280;61348;53.392;-6.248;2022-07-29T05:58:32;101143.63;;;16.64;76.96
43707;BME280;61348;53.392;-6.248;2022-07-29T06:00:59;101145.63;;;16.64;76.47
43707;BME280;61348;53.392;-6.248;2022-07-29T06:03:28;101140.78;;;16.61;76.28
43707;BME280;61348;53.392;-6.248;2022-07-29T06:05:55;101137.56;;;16.59;76.21
43707;BME280;61348;53.392;-6.248;2022-07-29T06:08:23;101141.53;;;16.58;75.73
43707;BME280;61348;53.392;-6.248;2022-07-29T06:10:50;101134.34;;;16.57;75.92
43707;BME280;61348;53.392;-6.248;2022-07-29T06:13:18;101138.72;;;16.58;75.54
43707;BME280;61348;53.392;-6.248;2022-07-29T06:15:46;101138.31;;;16.56;75.45
43707;BME280;61348;53.392;-6.248;2022-07-29T06:18:15;101138.31;;;16.56;75.65
43707;BME280;61348;53.392;-6.248;2022-07-29T06:20:42;101139.13;;;16.56;75.32
43707;BME280;61348;53.392;-6.248;2022-07-29T06:23:10;101141.97;;;16.60;75.53
43707;BME280;61348;53.392;-6.248;2022-07-29T06:25:39;101129.59;;;16.61;75.54
43707;BME280;61348;53.392;-6.248;2022-07-29T06:28:10;101132.06;;;16.66;75.53
43707;BME280;61348;53.392;-6.248;2022-07-29T06:30:38;101135.72;;;16.70;75.50
43707;BME280;61348;53.392;-6.248;2022-07-29T06:33:06;101138.19;;;16.75;75.75
43707;BME280;61348;53.392;-6.248;2022-07-29T06:35:34;101154.22;;;16.78;75.21
43707;BME280;61348;53.392;-6.248;2022-07-29T06:38:09;101153.47;;;16.81;75.38
43707;BME280;61348;53.392;-6.248;2022-07-29T06:41:00;101147.50;;;16.82;75.06
43707;BME280;61348;53.392;-6.248;2022-07-29T06:46:03;101143.56;;;16.87;74.90
43707;BME280;61348;53.392;-6.248;2022-07-29T06:48:32;101149.59;;;16.89;74.83
43707;BME280;61348;53.392;-6.248;2022-07-29T06:51:00;101153.19;;;16.89;75.03
43707;BME280;61348;53.392;-6.248;2022-07-29T06:53:28;101152.47;;;16.96;74.81
43707;BME280;61348;53.392;-6.248;2022-07-29T06:55:56;101152.97;;;17.01;75.12
43707;BME280;61348;53.392;-6.248;2022-07-29T06:58:26;101153.44;;;17.07;75.10
43707;BME280;61348;53.392;-6.248;2022-07-29T07:00:55;101162.69;;;17.11;74.84
43707;BME280;61348;53.392;-6.248;2022-07-29T07:03:24;101159.94;;;17.15;74.70
43707;BME280;61348;53.392;-6.248;2022-07-29T07:05:53;101154.81;;;17.20;75.08
43707;BME280;61348;53.392;-6.248;2022-07-29T07:08:21;101155.28;;;17.26;74.65
43707;BME280;61348;53.392;-6.248;2022-07-29T07:10:50;101156.19;;;17.33;74.65
43707;BME280;61348;53.392;-6.248;2022-07-29T07:13:18;101162.66;;;17.41;74.65
43707;BME280;61348;53.392;-6.248;2022-07-29T07:15:46;101158.72;;;17.45;74.61
43707;BME280;61348;53.392;-6.248;2022-07-29T07:18:15;101157.94;;;17.48;74.05
43707;BME280;61348;53.392;-6.248;2022-07-29T07:20:44;101160.44;;;17.53;74.22
43707;BME280;61348;53.392;-6.248;2022-07-29T07:23:12;101166.13;;;17.60;74.08
43707;BME280;61348;53.392;-6.248;2022-07-29T07:25:39;101170.59;;;17.69;74.28
43707;BME280;61348;53.392;-6.248;2022-07-29T07:31:55;101166.44;;;17.89;73.53
43707;BME280;61348;53.392;-6.248;2022-07-29T07:34:47;101168.13;;;17.97;73.63
43707;BME280;61348;53.392;-6.248;2022-07-29T07:37:35;101175.81;;;18.07;73.60
43707;BME280;61348;53.392;-6.248;2022-07-29T07:58:19;101179.72;;;18.39;71.75
43707;BME280;61348;53.392;-6.248;2022-07-29T08:07:55;101183.91;;;18.59;71.31
43707;BME280;61348;53.392;-6.248;2022-07-29T08:10:43;101189.66;;;18.73;71.39
43707;BME280;61348;53.392;-6.248;2022-07-29T08:13:44;101192.91;;;18.82;70.67
43707;BME280;61348;53.392;-6.248;2022-07-29T08:28:25;101169.38;;;18.98;69.07
43707;BME280;61348;53.392;-6.248;2022-07-29T08:31:14;101163.78;;;19.05;69.37
43707;BME280;61348;53.392;-6.248;2022-07-29T08:44:18;101158.81;;;19.46;67.97
43707;BME280;61348;53.392;-6.248;2022-07-29T08:54:39;101153.38;;;20.48;66.29
43707;BME280;61348;53.392;-6.248;2022-07-29T09:01:37;101149.28;;;21.09;65.13
43707;BME280;61348;53.392;-6.248;2022-07-29T09:04:48;101156.50;;;21.20;63.18
43707;BME280;61348;53.392;-6.248;2022-07-29T09:15:07;101151.44;;;21.67;60.75
43707;BME280;61348;53.392;-6.248;2022-07-29T09:17:49;101157.72;;;22.03;61.17
43707;BME280;61348;53.392;-6.248;2022-07-29T09:20:21;101154.19;;;22.39;60.79
43707;BME280;61348;53.392;-6.248;2022-07-29T09:23:07;101134.22;;;22.68;59.48
43707;BME280;61348;53.392;-6.248;2022-07-29T09:25:38;101141.72;;;22.81;59.46
43707;BME280;61348;53.392;-6.248;2022-07-29T09:28:15;101143.19;;;22.96;58.36
43707;BME280;61348;53.392;-6.248;2022-07-29T09:30:54;101141.84;;;23.42;56.55
43707;BME280;61348;53.392;-6.248;2022-07-29T09:33:23;101149.78;;;23.81;56.96
43707;BME280;61348;53.392;-6.248;2022-07-29T09:36:07;101147.28;;;23.86;54.77
43707;BME280;61348;53.392;-6.248;2022-07-29T10:06:59;101141.78;;;25.77;47.05
43707;BME280;61348;53.392;-6.248;2022-07-29T10:23:21;101135.28;;;22.81;51.95
43707;BME280;61348;53.392;-6.248;2022-07-29T10:25:50;101139.47;;;22.66;52.71
43707;BME280;61348;53.392;-6.248;2022-07-29T10:28:51;101138.72;;;22.58;52.73
43707;BME280;61348;53.392;-6.248;2022-07-29T10:42:39;101136.28;;;22.60;53.27
43707;BME280;61348;53.392;-6.248;2022-07-29T10:52:14;101147.28;;;21.93;54.55
43707;BME280;61348;53.392;-6.248;2022-07-29T11:13:52;101139.22;;;20.97;57.98
43707;BME280;61348;53.392;-6.248;2022-07-29T11:17:08;101144.06;;;20.93;58.95
43707;BME280;61348;53.392;-6.248;2022-07-29T11:19:40;101141.25;;;20.93;58.72
43707;BME280;61348;53.392;-6.248;2022-07-29T11:26:27;101148.84;;;21.03;59.70
43707;BME280;61348;53.392;-6.248;2022-07-29T11:45:22;101137.22;;;20.94;59.36
43707;BME280;61348;53.392;-6.248;2022-07-29T11:48:16;101141.25;;;20.93;59.74
43707;BME280;61348;53.392;-6.248;2022-07-29T11:50:58;101134.00;;;20.99;59.57
43707;BME280;61348;53.392;-6.248;2022-07-29T12:05:04;101127.53;;;21.16;59.55
43707;BME280;61348;53.392;-6.248;2022-07-29T12:08:08;101119.94;;;21.06;59.51
43707;BME280;61348;53.392;-6.248;2022-07-29T12:38:36;101133.19;;;20.99;61.25
43707;BME280;61348;53.392;-6.248;2022-07-29T12:44:55;101113.03;;;21.21;61.15
43707;BME280;61348;53.392;-6.248;2022-07-29T12:47:52;101118.22;;;21.34;61.19
43707;BME280;61348;53.392;-6.248;2022-07-29T12:50:56;101116.91;;;21.52;61.24
43707;BME280;61348;53.392;-6.248;2022-07-29T12:57:05;101121.63;;;21.73;60.25
43707;BME280;61348;53.392;-6.248;2022-07-29T12:59:59;101113.88;;;21.91;60.40
43707;BME280;61348;53.392;-6.248;2022-07-29T13:03:06;101114.91;;;22.15;59.65
43707;BME280;61348;53.392;-6.248;2022-07-29T13:09:20;101103.00;;;22.37;59.60
43707;BME280;61348;53.392;-6.248;2022-07-29T13:11:53;101101.34;;;22.43;59.64
43707;BME280;61348;53.392;-6.248;2022-07-29T13:21:14;101092.75;;;22.58;57.48
43707;BME280;61348;53.392;-6.248;2022-07-29T13:27:14;101091.63;;;22.89;58.16
43707;BME280;61348;53.392;-6.248;2022-07-29T13:29:44;101100.41;;;22.98;57.82
43707;BME280;61348;53.392;-6.248;2022-07-29T13:32:14;101090.59;;;23.06;57.15
43707;BME280;61348;53.392;-6.248;2022-07-29T13:35:04;101103.84;;;23.13;56.93
43707;BME280;61348;53.392;-6.248;2022-07-29T13:37:52;101098.53;;;23.18;57.17
43707;BME280;61348;53.392;-6.248;2022-07-29T14:05:47;101075.22;;;23.98;52.54
43707;BME280;61348;53.392;-6.248;2022-07-29T14:08:26;101068.78;;;23.94;51.91
43707;BME280;61348;53.392;-6.248;2022-07-29T14:13:46;101074.41;;;23.71;51.57
43707;BME280;61348;53.392;-6.248;2022-07-29T14:41:50;101068.72;;;23.74;52.36
43707;BME280;61348;53.392;-6.248;2022-07-29T14:44:42;101059.00;;;23.75;51.54
43707;BME280;61348;53.392;-6.248;2022-07-29T14:47:37;101060.91;;;23.82;51.42
43707;BME280;61348;53.392;-6.248;2022-07-29T15:11:46;101057.09;;;23.69;51.96
43707;BME280;61348;53.392;-6.248;2022-07-29T15:18:31;101058.63;;;23.73;52.12
43707;BME280;61348;53.392;-6.248;2022-07-29T15:28:07;101050.41;;;24.09;51.50
43707;BME280;61348;53.392;-6.248;2022-07-29T15:30:35;101037.66;;;24.20;51.71
43707;BME280;61348;53.392;-6.248;2022-07-29T15:33:10;101044.44;;;24.27;51.75
43707;BME280;61348;53.392;-6.248;2022-07-29T15:39:03;101033.97;;;24.23;51.18
43707;BME280;61348;53.392;-6.248;2022-07-29T15:41:33;101034.16;;;24.13;51.13
43707;BME280;61348;53.392;-6.248;2022-07-29T15:44:01;101043.00;;;24.15;51.33
43707;BME280;61348;53.392;-6.248;2022-07-29T15:46:29;101033.44;;;24.09;51.40
43707;BME280;61348;53.392;-6.248;2022-07-29T15:49:16;101026.97;;;24.08;51.47
43707;BME280;61348;53.392;-6.248;2022-07-29T15:55:51;101026.69;;;23.99;51.38
43707;BME280;61348;53.392;-6.248;2022-07-29T15:58:38;101029.50;;;23.99;51.30
43707;BME280;61348;53.392;-6.248;2022-07-29T16:01:27;101024.78;;;23.93;51.40
43707;BME280;61348;53.392;-6.248;2022-07-29T16:04:17;101013.47;;;23.93;51.07
43707;BME280;61348;53.392;-6.248;2022-07-29T16:06:49;101021.56;;;23.91;51.02
43707;BME280;61348;53.392;-6.248;2022-07-29T16:09:17;101017.56;;;23.88;50.97
43707;BME280;61348;53.392;-6.248;2022-07-29T16:18:25;101004.97;;;23.70;50.87
43707;BME280;61348;53.392;-6.248;2022-07-29T16:20:56;101010.31;;;23.64;51.03
43707;BME280;61348;53.392;-6.248;2022-07-29T16:27:05;101007.66;;;23.53;51.10
43707;BME280;61348;53.392;-6.248;2022-07-29T16:29:39;101002.84;;;23.50;51.50
43707;BME280;61348;53.392;-6.248;2022-07-29T16:32:07;100997.13;;;23.54;51.58
43707;BME280;61348;53.392;-6.248;2022-07-29T16:35:09;100995.56;;;23.53;50.87
43707;BME280;61348;53.392;-6.248;2022-07-29T16:37:57;100998.06;;;23.47;51.40
43707;BME280;61348;53.392;-6.248;2022-07-29T16:48:46;101009.09;;;23.08;51.63
43707;BME280;61348;53.392;-6.248;2022-07-29T16:55:18;101001.00;;;23.10;51.33
43707;BME280;61348;53.392;-6.248;2022-07-29T17:24:12;100980.00;;;23.11;52.08
43707;BME280;61348;53.392;-6.248;2022-07-29T17:27:00;100978.88;;;23.05;52.51
43707;BME280;61348;53.392;-6.248;2022-07-29T17:29:28;100984.19;;;22.99;52.08
43707;BME280;61348;53.392;-6.248;2022-07-29T17:31:57;100971.44;;;22.88;52.39
43707;BME280;61348;53.392;-6.248;2022-07-29T17:38:11;100982.72;;;22.88;52.43
43707;BME280;61348;53.392;-6.248;2022-07-29T17:40:39;100988.00;;;22.86;52.39
43707;BME280;61348;53.392;-6.248;2022-07-29T17:49:56;100974.13;;;22.68;53.38
43707;BME280;61348;53.392;-6.248;2022-07-29T17:56:04;100969.41;;;22.55;54.75
43707;BME280;61348;53.392;-6.248;2022-07-29T18:01:57;100969.16;;;22.42;55.95
43707;BME280;61348;53.392;-6.248;2022-07-29T18:04:25;100970.81;;;22.39;56.12
43707;BME280;61348;53.392;-6.248;2022-07-29T18:07:14;100963.22;;;22.33;56.68
43707;BME280;61348;53.392;-6.248;2022-07-29T18:09:45;100964.03;;;22.33;56.67
43707;BME280;61348;53.392;-6.248;2022-07-29T18:16:24;100968.09;;;22.29;56.35
43707;BME280;61348;53.392;-6.248;2022-07-29T18:19:12;100975.44;;;22.19;56.23
43707;BME280;61348;53.392;-6.248;2022-07-29T18:25:16;100961.81;;;22.14;56.46
43707;BME280;61348;53.392;-6.248;2022-07-29T18:27:43;100958.97;;;22.14;56.64
43707;BME280;61348;53.392;-6.248;2022-07-29T18:30:11;100964.25;;;22.12;56.38
43707;BME280;61348;53.392;-6.248;2022-07-29T18:33:07;100959.91;;;22.04;56.81
43707;BME280;61348;53.392;-6.248;2022-07-29T18:35:51;100960.72;;;22.01;56.86
43707;BME280;61348;53.392;-6.248;2022-07-29T18:43:03;100963.25;;;21.92;57.00
43707;BME280;61348;53.392;-6.248;2022-07-29T18:45:51;100963.63;;;21.94;57.10
43707;BME280;61348;53.392;-6.248;2022-07-29T18:48:39;100954.78;;;21.92;57.54
43707;BME280;61348;53.392;-6.248;2022-07-29T18:51:27;100954.00;;;21.84;57.70
43707;BME280;61348;53.392;-6.248;2022-07-29T18:54:15;100949.25;;;21.78;58.23
43707;BME280;61348;53.392;-6.248;2022-07-29T19:00:44;100963.06;;;21.62;58.57
43707;BME280;61348;53.392;-6.248;2022-07-29T19:03:31;100964.72;;;21.59;59.60
43707;BME280;61348;53.392;-6.248;2022-07-29T19:06:19;100969.59;;;21.52;59.64
43707;BME280;61348;53.392;-6.248;2022-07-29T19:09:12;100962.41;;;21.44;60.51
43707;BME280;61348;53.392;-6.248;2022-07-29T19:12:00;100970.09;;;21.40;60.75
43707;BME280;61348;53.392;-6.248;2022-07-29T19:15:00;100975.34;;;21.34;61.05
43707;BME280;61348;53.392;-6.248;2022-07-29T19:21:04;100979.41;;;21.30;61.32
43707;BME280;61348;53.392;-6.248;2022-07-29T19:30:28;100984.38;;;21.04;61.94
43707;BME280;61348;53.392;-6.248;2022-07-29T19:33:16;100981.94;;;21.03;62.01
43707;BME280;61348;53.392;-6.248;2022-07-29T19:39:50;100975.19;;;20.93;62.78
43707;BME280;61348;53.392;-6.248;2022-07-29T19:42:38;100980.00;;;20.89;63.08
43707;BME280;61348;53.392;-6.248;2022-07-29T19:45:21;100979.28;;;20.78;63.77
43707;BME280;61348;53.392;-6.248;2022-07-29T19:47:50;100980.91;;;20.72;64.03
43707;BME280;61348;53.392;-6.248;2022-07-29T19:50:18;100980.09;;;20.75;64.07
43707;BME280;61348;53.392;-6.248;2022-07-29T20:00:09;100979.72;;;20.66;64.73
43707;BME280;61348;53.392;-6.248;2022-07-29T20:02:42;100976.56;;;20.57;64.29
43707;BME280;61348;53.392;-6.248;2022-07-29T20:12:07;100985.00;;;20.50;64.48
43707;BME280;61348;53.392;-6.248;2022-07-29T20:14:55;100974.97;;;20.49;64.25
43707;BME280;61348;53.392;-6.248;2022-07-29T20:24:30;100980.59;;;20.42;64.94
43707;BME280;61348;53.392;-6.248;2022-07-29T20:26:59;100987.84;;;20.43;64.11
43707;BME280;61348;53.392;-6.248;2022-07-29T21:49:03;100957.81;;;19.90;66.26
43707;BME280;61348;53.392;-6.248;2022-07-29T21:52:15;100952.59;;;19.85;66.63
43707;BME280;61348;53.392;-6.248;2022-07-29T21:55:28;100947.75;;;19.86;66.88
43707;BME280;61348;53.392;-6.248;2022-07-29T21:58:02;100960.63;;;19.90;66.52
43707;BME280;61348;53.392;-6.248;2022-07-29T22:04:06;100937.31;;;19.90;66.27
43707;BME280;61348;53.392;-6.248;2022-07-29T22:10:15;100936.53;;;19.82;67.23
43707;BME280;61348;53.392;-6.248;2022-07-29T22:16:48;100938.16;;;19.76;67.47
43707;BME280;61348;53.392;-6.248;2022-07-29T22:19:36;100945.78;;;19.72;67.48
43707;BME280;61348;53.392;-6.248;2022-07-29T22:22:24;100942.56;;;19.70;67.49
43707;BME280;61348;53.392;-6.248;2022-07-29T22:29:02;100946.19;;;19.74;67.61
43707;BME280;61348;53.392;-6.248;2022-07-29T22:35:41;100934.13;;;19.74;67.95
43707;BME280;61348;53.392;-6.248;2022-07-29T22:38:29;100936.53;;;19.75;67.78
43707;BME280;61348;53.392;-6.248;2022-07-29T22:44:47;100926.91;;;19.76;67.95
43707;BME280;61348;53.392;-6.248;2022-07-29T22:47:35;100933.34;;;19.77;68.39
43707;BME280;61348;53.392;-6.248;2022-07-29T22:50:37;100926.50;;;19.71;68.84
43707;BME280;61348;53.392;-6.248;2022-07-29T22:56:55;100933.31;;;19.70;68.78
43707;BME280;61348;53.392;-6.248;2022-07-29T22:59:23;100928.53;;;19.67;68.84
43707;BME280;61348;53.392;-6.248;2022-07-29T23:01:50;100923.72;;;19.64;68.85
43707;BME280;61348;53.392;-6.248;2022-07-29T23:04:19;100916.50;;;19.66;69.11
43707;BME280;61348;53.392;-6.248;2022-07-29T23:06:49;100914.88;;;19.65;69.50
43707;BME280;61348;53.392;-6.248;2022-07-29T23:09:19;100918.91;;;19.61;69.76
43707;BME280;61348;53.392;-6.248;2022-07-29T23:11:49;100922.50;;;19.61;69.47
43707;BME280;61348;53.392;-6.248;2022-07-29T23:14:17;100906.88;;;19.64;69.27
43707;BME280;61348;53.392;-6.248;2022-07-29T23:16:44;100909.25;;;19.65;69.70
43707;BME280;61348;53.392;-6.248;2022-07-29T23:19:12;100909.66;;;19.60;69.74
43707;BME280;61348;53.392;-6.248;2022-07-29T23:21:40;100914.09;;;19.61;70.04
43707;BME280;61348;53.392;-6.248;2022-07-29T23:24:07;100916.50;;;19.66;69.72
43707;BME280;61348;53.392;-6.248;2022-07-29T23:26:35;100912.47;;;19.67;69.85
43707;BME280;61348;53.392;-6.248;2022-07-29T23:29:03;100915.69;;;19.66;69.98
43707;BME280;61348;53.392;-6.248;2022-07-29T23:31:30;100912.47;;;19.64;69.77
43707;BME280;61348;53.392;-6.248;2022-07-29T23:34:18;100926.09;;;19.65;70.20
43707;BME280;61348;53.392;-6.248;2022-07-29T23:37:06;100936.94;;;19.63;70.24
43707;BME280;61348;53.392;-6.248;2022-07-29T23:39:55;100930.53;;;19.59;70.09
43707;BME280;61348;53.392;-6.248;2022-07-29T23:42:45;100925.31;;;19.58;70.16
43707;BME280;61348;53.392;-6.248;2022-07-29T23:45:34;100912.88;;;19.59;70.37
43707;BME280;61348;53.392;-6.248;2022-07-29T23:48:31;100913.28;;;19.57;70.04
43707;BME280;61348;53.392;-6.248;2022-07-29T23:51:22;100911.69;;;19.56;70.08
43707;BME280;61348;53.392;-6.248;2022-07-29T23:54:12;100912.47;;;19.53;70.17
43707;BME280;61348;53.392;-6.248;2022-07-29T23:57:00;100900.88;;;19.51;70.35
43707;BME280;61348;53.392;-6.248;2022-07-29T23:59:49;100905.25;;;19.49;70.80
